createdAt,value
2019-05-20T00:01:08.770Z,10.40
2019-05-20T00:03:39.182Z,10.40
2019-05-20T00:06:09.902Z,10.40
2019-05-20T00:08:39.930Z,10.40
2019-05-20T00:11:09.820Z,10.40
2019-05-20T00:13:39.752Z,10.50
2019-05-20T00:16:09.972Z,10.50
2019-05-20T00:18:39.794Z,10.50
2019-05-20T00:21:09.783Z,10.50
2019-05-20T00:23:39.718Z,10.50
2019-05-20T00:26:09.842Z,10.40
2019-05-20T00:28:39.629Z,10.40
2019-05-20T00:31:09.657Z,10.30
2019-05-20T00:33:39.776Z,10.30
2019-05-20T00:36:09.564Z,10.30
2019-05-20T00:38:39.711Z,10.20
2019-05-20T00:41:09.754Z,10.20
2019-05-20T00:43:39.752Z,10.20
2019-05-20T00:46:09.828Z,10.20
2019-05-20T00:48:39.664Z,10.20
2019-05-20T00:51:09.697Z,10.10
2019-05-20T00:53:39.488Z,10.00
2019-05-20T00:56:09.564Z,9.90
2019-05-20T00:58:39.767Z,9.90
2019-05-20T01:01:09.557Z,9.90
2019-05-20T01:03:39.393Z,9.80
2019-05-20T01:06:09.407Z,9.80
2019-05-20T01:08:39.377Z,9.80
2019-05-20T01:11:09.427Z,9.70
2019-05-20T01:13:39.223Z,9.70
2019-05-20T01:16:09.494Z,9.60
2019-05-20T01:18:39.440Z,9.60
2019-05-20T01:21:10.023Z,9.50
2019-05-20T01:23:39.886Z,9.50
2019-05-20T01:26:10.094Z,9.50
2019-05-20T01:28:39.943Z,9.50
2019-05-20T01:31:09.747Z,9.50
2019-05-20T01:33:39.930Z,9.50
2019-05-20T01:36:09.739Z,9.50
2019-05-20T01:38:39.846Z,9.40
2019-05-20T01:41:09.672Z,9.40
2019-05-20T01:43:39.585Z,9.30
2019-05-20T01:46:09.625Z,9.30
2019-05-20T01:48:39.507Z,9.40
2019-05-20T01:51:09.536Z,9.40
2019-05-20T01:53:39.374Z,9.40
2019-05-20T01:56:09.601Z,9.30
2019-05-20T01:58:39.823Z,9.30
2019-05-20T02:01:09.885Z,9.30
2019-05-20T02:03:39.938Z,9.30
2019-05-20T02:06:09.714Z,9.20
2019-05-20T02:08:39.504Z,9.20
2019-05-20T02:11:09.343Z,9.20
2019-05-20T02:13:53.235Z,9.20
2019-05-20T02:16:25.097Z,9.10
2019-05-20T02:18:54.933Z,9.20
2019-05-20T02:21:24.803Z,9.10
2019-05-20T02:23:55.004Z,9.10
2019-05-20T02:26:24.793Z,9.10
2019-05-20T02:28:54.734Z,9.10
2019-05-20T02:31:24.851Z,9.10
2019-05-20T02:33:54.650Z,9.10
2019-05-20T02:36:24.670Z,9.10
2019-05-20T02:38:54.727Z,9.00
2019-05-20T02:41:24.557Z,9.00
2019-05-20T02:43:54.975Z,9.00
2019-05-20T02:46:24.900Z,8.90
2019-05-20T02:48:54.706Z,8.90
2019-05-20T02:51:29.370Z,8.80
2019-05-20T02:54:01.130Z,8.80
2019-05-20T02:56:31.320Z,8.80
2019-05-20T02:59:01.391Z,8.70
2019-05-20T03:01:32.123Z,8.70
2019-05-20T03:04:11.622Z,8.70
2019-05-20T03:06:33.417Z,8.70
2019-05-20T03:09:04.181Z,8.70
2019-05-20T03:11:34.074Z,8.70
2019-05-20T03:14:03.919Z,8.70
2019-05-20T03:16:34.177Z,8.60
2019-05-20T03:19:03.965Z,8.60
2019-05-20T03:21:34.261Z,8.50
2019-05-20T03:24:04.059Z,8.50
2019-05-20T03:26:33.841Z,8.70
2019-05-20T03:29:03.670Z,8.70
2019-05-20T03:31:33.460Z,8.70
2019-05-20T03:34:03.502Z,8.80
2019-05-20T03:36:33.402Z,8.70
2019-05-20T03:39:04.667Z,8.70
2019-05-20T03:41:35.336Z,8.80
2019-05-20T03:44:05.235Z,8.70
2019-05-20T03:46:35.091Z,8.70
2019-05-20T03:49:05.983Z,8.60
2019-05-20T03:51:37.449Z,8.60
2019-05-20T03:54:07.584Z,8.60
2019-05-20T03:56:37.847Z,8.50
2019-05-20T03:59:08.155Z,8.50
2019-05-20T04:01:37.955Z,8.40
2019-05-20T04:04:07.992Z,8.40
2019-05-20T04:06:39.222Z,8.40
2019-05-20T04:09:09.298Z,8.50
2019-05-20T04:11:39.383Z,8.50
2019-05-20T04:14:10.171Z,8.50
2019-05-20T04:16:40.020Z,8.50
2019-05-20T04:19:09.798Z,8.60
2019-05-20T04:21:39.635Z,8.50
2019-05-20T04:24:10.369Z,8.50
2019-05-20T04:26:40.149Z,8.60
2019-05-20T04:29:10.814Z,8.60
2019-05-20T04:31:41.517Z,8.60
2019-05-20T04:34:11.279Z,8.60
2019-05-20T04:36:41.277Z,8.60
2019-05-20T04:39:11.071Z,8.60
2019-05-20T04:41:40.862Z,8.60
2019-05-20T04:44:10.878Z,8.60
2019-05-20T04:46:40.652Z,8.50
2019-05-20T04:49:11.016Z,8.50
2019-05-20T04:51:41.543Z,8.60
2019-05-20T04:54:12.171Z,8.60
2019-05-20T04:56:41.972Z,8.70
2019-05-20T04:59:11.796Z,8.80
2019-05-20T05:01:41.590Z,8.80
2019-05-20T05:04:12.211Z,8.90
2019-05-20T05:06:42.048Z,8.90
2019-05-20T05:09:15.490Z,8.90
2019-05-20T05:11:44.057Z,9.00
2019-05-20T05:14:14.071Z,9.10
2019-05-20T05:16:44.399Z,9.20
2019-05-20T05:19:14.359Z,9.20
2019-05-20T05:21:44.713Z,9.30
2019-05-20T05:24:15.462Z,9.30
2019-05-20T05:26:47.951Z,9.30
2019-05-20T05:29:18.213Z,9.40
2019-05-20T05:31:47.982Z,9.50
2019-05-20T05:34:18.715Z,9.50
2019-05-20T05:36:48.532Z,9.60
2019-05-20T05:39:18.338Z,9.70
2019-05-20T05:41:48.633Z,9.70
2019-05-20T05:44:18.468Z,9.80
2019-05-20T05:46:48.238Z,9.90
2019-05-20T05:49:18.391Z,10.00
2019-05-20T05:51:48.216Z,10.10
2019-05-20T05:54:18.133Z,10.20
2019-05-20T05:56:48.318Z,10.30
2019-05-20T05:59:18.140Z,10.40
2019-05-20T06:01:47.937Z,10.50
2019-05-20T06:04:17.767Z,10.60
2019-05-20T06:06:47.603Z,10.70
2019-05-20T06:09:17.455Z,10.80
2019-05-20T06:11:47.427Z,11.00
2019-05-20T06:14:17.567Z,11.10
2019-05-20T06:16:47.278Z,11.10
2019-05-20T06:19:17.110Z,11.20
2019-05-20T06:21:47.239Z,11.40
2019-05-20T06:24:17.038Z,11.50
2019-05-20T06:26:47.130Z,11.60
2019-05-20T06:29:17.040Z,11.70
2019-05-20T06:31:47.600Z,11.80
2019-05-20T06:34:18.507Z,11.90
2019-05-20T06:36:52.427Z,12.00
2019-05-20T06:39:23.737Z,12.10
2019-05-20T06:41:53.926Z,12.30
2019-05-20T06:44:24.121Z,12.40
2019-05-20T06:46:54.325Z,12.50
2019-05-20T06:49:25.239Z,12.60
2019-05-20T06:51:57.502Z,12.70
2019-05-20T06:54:27.389Z,12.80
2019-05-20T06:56:57.277Z,12.90
2019-05-20T06:59:27.155Z,13.00
2019-05-20T07:01:57.478Z,13.10
2019-05-20T07:04:27.696Z,13.20
2019-05-20T07:06:57.536Z,13.30
2019-05-20T07:09:27.575Z,13.30
2019-05-20T07:11:57.376Z,13.40
2019-05-20T07:14:27.723Z,13.40
2019-05-20T07:16:57.503Z,13.40
2019-05-20T07:19:27.716Z,13.50
2019-05-20T07:21:57.494Z,13.50
2019-05-20T07:24:27.785Z,13.60
2019-05-20T07:26:58.034Z,13.70
2019-05-20T07:29:27.939Z,13.80
2019-05-20T07:31:57.731Z,13.90
2019-05-20T07:34:27.720Z,14.20
2019-05-20T07:37:03.109Z,14.40
2019-05-20T07:39:28.944Z,14.50
2019-05-20T07:41:58.723Z,14.60
2019-05-20T07:44:29.373Z,14.80
2019-05-20T07:46:59.388Z,15.00
2019-05-20T07:49:30.120Z,15.20
2019-05-20T07:52:00.358Z,15.40
2019-05-20T07:54:30.374Z,15.60
2019-05-20T07:57:03.097Z,15.80
2019-05-20T07:59:35.965Z,16.00
2019-05-20T08:02:06.487Z,16.20
2019-05-20T08:04:36.285Z,16.20
2019-05-20T08:07:26.217Z,16.30
2019-05-20T08:09:45.306Z,16.40
2019-05-20T08:12:09.616Z,16.60
2019-05-20T08:14:39.442Z,16.90
2019-05-20T08:17:09.217Z,16.90
2019-05-20T08:19:39.562Z,17.00
2019-05-20T08:22:09.402Z,16.90
2019-05-20T08:24:39.162Z,17.00
2019-05-20T08:27:09.468Z,16.90
2019-05-20T08:29:39.376Z,16.90
2019-05-20T08:32:09.160Z,17.00
2019-05-20T08:34:39.998Z,17.00
2019-05-20T08:37:10.413Z,16.90
2019-05-20T08:39:40.675Z,16.90
2019-05-20T08:42:10.471Z,16.80
2019-05-20T08:44:40.332Z,16.60
2019-05-20T08:47:10.679Z,16.30
2019-05-20T08:49:40.524Z,16.20
2019-05-20T08:52:10.763Z,16.00
2019-05-20T08:54:40.748Z,15.80
2019-05-20T08:57:10.540Z,15.70
2019-05-20T08:59:40.638Z,15.70
2019-05-20T09:02:10.509Z,15.70
2019-05-20T09:04:40.445Z,15.80
2019-05-20T09:07:10.270Z,15.90
2019-05-20T09:09:40.552Z,16.10
2019-05-20T09:12:11.292Z,16.10
2019-05-20T09:14:41.199Z,16.10
2019-05-20T09:17:11.270Z,16.10
2019-05-20T09:19:41.290Z,16.00
2019-05-20T09:22:11.073Z,16.00
2019-05-20T09:24:41.202Z,16.20
2019-05-20T09:27:11.362Z,16.30
2019-05-20T09:29:41.200Z,16.40
2019-05-20T09:32:11.451Z,16.60
2019-05-20T09:34:41.994Z,16.70
2019-05-20T09:37:12.744Z,16.80
2019-05-20T09:39:43.174Z,17.00
2019-05-20T09:42:12.986Z,17.20
2019-05-20T09:44:42.936Z,17.50
2019-05-20T09:47:14.259Z,17.60
2019-05-20T09:49:44.016Z,17.80
2019-05-20T09:52:14.865Z,18.10
2019-05-20T09:54:45.670Z,18.20
2019-05-20T09:57:15.649Z,18.30
2019-05-20T09:59:45.774Z,18.10
2019-05-20T10:02:15.585Z,17.90
2019-05-20T10:04:45.699Z,17.70
2019-05-20T10:07:15.524Z,17.60
2019-05-20T10:09:45.371Z,17.50
2019-05-20T10:12:15.266Z,17.30
2019-05-20T10:14:45.305Z,17.10
2019-05-20T10:17:15.083Z,17.10
2019-05-20T10:19:45.616Z,17.30
2019-05-20T10:22:15.534Z,17.80
2019-05-20T10:24:45.784Z,18.40
2019-05-20T10:27:15.587Z,18.80
2019-05-20T10:29:45.491Z,18.80
2019-05-20T10:32:16.930Z,18.50
2019-05-20T10:34:47.144Z,18.20
2019-05-20T10:37:17.310Z,17.90
2019-05-20T10:39:47.122Z,17.70
2019-05-20T10:42:17.026Z,17.60
2019-05-20T10:44:47.103Z,17.60
2019-05-20T10:47:16.924Z,17.70
2019-05-20T10:49:46.952Z,17.80
2019-05-20T10:52:17.119Z,19.40
2019-05-20T10:54:46.985Z,20.80
2019-05-20T10:57:16.765Z,21.80
2019-05-20T10:59:46.749Z,22.20
2019-05-20T11:02:16.674Z,23.30
2019-05-20T11:04:46.964Z,23.70
2019-05-20T11:07:17.093Z,23.30
2019-05-20T11:09:46.881Z,22.50
2019-05-20T11:12:17.886Z,21.60
2019-05-20T11:14:48.101Z,20.60
2019-05-20T11:17:17.887Z,20.00
2019-05-20T11:19:47.784Z,19.70
2019-05-20T11:22:17.855Z,19.60
2019-05-20T11:24:47.909Z,19.50
2019-05-20T11:27:17.731Z,19.20
2019-05-20T11:29:48.055Z,18.80
2019-05-20T11:32:17.852Z,18.60
2019-05-20T11:34:47.822Z,18.60
2019-05-20T11:37:17.834Z,18.30
2019-05-20T11:39:47.689Z,18.10
2019-05-20T11:42:17.475Z,18.00
2019-05-20T11:44:47.671Z,18.00
2019-05-20T11:47:17.552Z,18.10
2019-05-20T11:49:47.583Z,18.30
2019-05-20T11:52:18.054Z,18.40
2019-05-20T11:54:47.882Z,18.60
2019-05-20T11:57:17.711Z,18.50
2019-05-20T11:59:50.079Z,18.40
2019-05-20T12:02:19.924Z,18.40
2019-05-20T12:04:49.706Z,18.30
2019-05-20T12:07:19.996Z,18.10
2019-05-20T12:09:50.925Z,18.00
2019-05-20T12:12:23.092Z,17.90
2019-05-20T12:14:53.354Z,17.80
2019-05-20T12:17:23.631Z,17.70
2019-05-20T12:19:53.604Z,17.60
2019-05-20T12:22:23.824Z,17.40
2019-05-20T12:24:53.623Z,17.40
2019-05-20T12:27:23.613Z,17.40
2019-05-20T12:29:53.568Z,17.40
2019-05-20T12:32:23.638Z,17.40
2019-05-20T12:34:53.503Z,17.40
2019-05-20T12:37:23.337Z,17.40
2019-05-20T12:40:06.375Z,17.30
2019-05-20T12:42:24.878Z,17.30
2019-05-20T12:44:55.212Z,17.30
2019-05-20T12:47:25.781Z,17.40
2019-05-20T12:49:55.590Z,17.40
2019-05-20T12:52:25.471Z,17.40
2019-05-20T12:55:07.179Z,17.40
2019-05-20T12:57:28.208Z,17.50
2019-05-20T12:59:58.441Z,17.70
2019-05-20T13:02:28.564Z,17.80
2019-05-20T13:04:58.344Z,17.80
2019-05-20T13:07:28.161Z,17.90
2019-05-20T13:10:02.520Z,17.70
2019-05-20T13:12:32.400Z,17.70
2019-05-20T13:15:04.986Z,17.60
2019-05-20T13:17:35.543Z,17.50
2019-05-20T13:20:07.027Z,17.30
2019-05-20T13:22:37.004Z,17.20
2019-05-20T13:25:07.447Z,17.10
2019-05-20T13:27:37.777Z,17.10
2019-05-20T13:30:09.694Z,17.10
2019-05-20T13:32:40.424Z,17.10
2019-05-20T13:35:10.418Z,17.10
2019-05-20T13:37:40.241Z,17.10
2019-05-20T13:40:10.309Z,17.20
2019-05-20T13:42:40.435Z,17.30
2019-05-20T13:45:10.644Z,17.30
2019-05-20T13:47:41.349Z,17.50
2019-05-20T13:50:11.529Z,17.60
2019-05-20T13:52:41.652Z,17.70
2019-05-20T13:55:11.792Z,17.80
2019-05-20T13:57:41.650Z,17.90
2019-05-20T14:00:13.443Z,18.00
2019-05-20T14:02:43.632Z,18.10
2019-05-20T14:05:13.758Z,18.30
2019-05-20T14:07:45.459Z,18.40
2019-05-20T14:10:16.226Z,18.50
2019-05-20T14:12:46.487Z,18.60
2019-05-20T14:15:16.363Z,18.70
2019-05-20T14:17:46.428Z,18.90
2019-05-20T14:20:16.808Z,19.10
2019-05-20T14:22:46.764Z,19.50
2019-05-20T14:25:16.553Z,19.70
2019-05-20T14:27:46.341Z,19.60
2019-05-20T14:30:16.641Z,19.90
2019-05-20T14:32:46.600Z,20.40
2019-05-20T14:35:17.170Z,20.70
2019-05-20T14:37:47.439Z,20.40
2019-05-20T14:40:17.309Z,20.10
2019-05-20T14:42:48.547Z,20.00
2019-05-20T14:45:18.418Z,20.10
2019-05-20T14:47:48.207Z,20.30
2019-05-20T14:50:18.116Z,20.50
2019-05-20T14:52:48.088Z,20.60
2019-05-20T14:55:18.020Z,20.60
2019-05-20T14:57:48.021Z,20.60
2019-05-20T15:00:18.675Z,20.50
2019-05-20T15:02:48.642Z,20.20
2019-05-20T15:05:18.452Z,19.90
2019-05-20T15:07:48.273Z,19.80
2019-05-20T15:10:18.569Z,19.70
2019-05-20T15:12:50.714Z,19.70
2019-05-20T15:15:20.630Z,19.70
2019-05-20T15:17:50.932Z,19.60
2019-05-20T15:20:20.693Z,19.30
2019-05-20T15:22:50.781Z,19.30
2019-05-20T15:25:20.578Z,19.20
2019-05-20T15:27:50.377Z,19.20
2019-05-20T15:30:20.815Z,19.10
2019-05-20T15:32:54.096Z,19.20
2019-05-20T15:35:22.126Z,19.30
2019-05-20T15:37:51.951Z,19.20
2019-05-20T15:40:24.353Z,19.10
2019-05-20T15:42:53.175Z,19.00
2019-05-20T15:45:23.002Z,18.90
2019-05-20T15:47:52.805Z,18.80
2019-05-20T15:50:23.142Z,18.70
2019-05-20T15:52:53.048Z,18.80
2019-05-20T15:55:22.830Z,18.80
2019-05-20T15:57:53.280Z,18.90
2019-05-20T16:00:23.308Z,19.00
2019-05-20T16:02:53.163Z,19.20
2019-05-20T16:05:22.957Z,19.40
2019-05-20T16:07:52.780Z,19.60
2019-05-20T16:10:22.580Z,19.60
2019-05-20T16:12:54.132Z,19.60
2019-05-20T16:15:23.985Z,19.70
2019-05-20T16:17:53.837Z,19.70
2019-05-20T16:20:23.840Z,19.70
2019-05-20T16:22:54.157Z,19.80
2019-05-20T16:25:24.882Z,19.70
2019-05-20T16:27:54.683Z,19.60
2019-05-20T16:30:24.909Z,19.40
2019-05-20T16:32:54.924Z,19.20
2019-05-20T16:35:24.735Z,19.00
2019-05-20T16:37:54.630Z,18.80
2019-05-20T16:40:24.483Z,18.60
2019-05-20T16:42:55.843Z,18.60
2019-05-20T16:45:26.275Z,18.50
2019-05-20T16:47:56.919Z,18.30
2019-05-20T16:50:26.824Z,18.30
2019-05-20T16:52:56.702Z,18.30
2019-05-20T16:55:26.977Z,18.30
2019-05-20T16:57:56.851Z,18.30
2019-05-20T17:00:31.956Z,18.20
2019-05-20T17:02:58.320Z,18.10
2019-05-20T17:05:28.786Z,18.10
2019-05-20T17:07:59.655Z,18.20
2019-05-20T17:10:29.459Z,18.40
2019-05-20T17:12:59.256Z,18.50
2019-05-20T17:15:29.709Z,18.60
2019-05-20T17:17:59.540Z,18.70
2019-05-20T17:20:29.296Z,18.70
2019-05-20T17:22:59.417Z,18.90
2019-05-20T17:25:31.959Z,19.00
2019-05-20T17:28:01.761Z,19.00
2019-05-20T17:30:44.345Z,18.90
2019-05-20T17:33:03.367Z,18.90
2019-05-20T17:35:33.893Z,18.90
2019-05-20T17:38:03.826Z,18.80
2019-05-20T17:40:33.625Z,18.60
2019-05-20T17:43:03.977Z,18.40
2019-05-20T17:45:34.750Z,18.20
2019-05-20T17:48:05.196Z,18.10
2019-05-20T17:50:35.008Z,18.00
2019-05-20T17:53:04.838Z,18.00
2019-05-20T17:55:35.311Z,17.90
2019-05-20T17:58:05.461Z,17.80
2019-05-20T18:00:36.582Z,17.70
2019-05-20T18:03:07.360Z,17.60
2019-05-20T18:05:37.154Z,17.60
2019-05-20T18:08:07.000Z,17.50
2019-05-20T18:10:37.380Z,17.50
2019-05-20T18:13:07.261Z,17.40
2019-05-20T18:15:37.087Z,17.40
2019-05-20T18:18:07.344Z,17.30
2019-05-20T18:20:37.145Z,17.30
2019-05-20T18:23:07.932Z,17.20
2019-05-20T18:25:37.731Z,17.20
2019-05-20T18:28:08.633Z,17.10
2019-05-20T18:30:38.581Z,17.10
2019-05-20T18:33:08.601Z,17.00
2019-05-20T18:35:38.966Z,16.90
2019-05-20T18:38:09.971Z,16.80
2019-05-20T18:40:39.845Z,16.70
2019-05-20T18:43:09.742Z,16.70
2019-05-20T18:45:39.572Z,16.60
2019-05-20T18:48:09.651Z,16.60
2019-05-20T18:53:42.993Z,16.40
2019-05-20T18:56:13.162Z,16.30
2019-05-20T18:58:42.980Z,16.20
2019-05-20T19:01:12.866Z,16.10
2019-05-20T19:03:43.963Z,16.00
2019-05-20T19:06:13.730Z,16.00
2019-05-20T19:08:43.558Z,15.90
2019-05-20T19:11:13.428Z,15.80
2019-05-20T19:13:43.543Z,15.70
2019-05-20T19:16:13.375Z,15.70
2019-05-20T19:18:43.362Z,15.60
2019-05-20T19:21:13.157Z,15.60
2019-05-20T19:23:44.114Z,15.50
2019-05-20T19:26:24.364Z,15.40
2019-05-20T19:28:45.794Z,15.30
2019-05-20T19:31:15.830Z,15.30
2019-05-20T19:33:45.629Z,15.20
2019-05-20T19:36:16.493Z,15.20
2019-05-20T19:38:47.303Z,15.10
2019-05-20T19:41:17.374Z,15.10
2019-05-20T19:43:49.591Z,15.10
2019-05-20T19:46:19.434Z,15.00
2019-05-20T19:48:49.993Z,14.90
2019-05-20T19:51:19.804Z,14.80
2019-05-20T19:53:49.620Z,14.70
2019-05-20T19:56:19.794Z,14.70
2019-05-20T19:58:49.606Z,14.60
2019-05-20T20:01:19.419Z,14.60
2019-05-20T20:03:49.698Z,14.50
2019-05-20T20:06:19.559Z,14.40
2019-05-20T20:08:49.406Z,14.40
2019-05-20T20:11:19.732Z,14.30
2019-05-20T20:13:51.010Z,14.30
2019-05-20T20:16:20.830Z,14.20
2019-05-20T20:18:51.160Z,14.20
2019-05-20T20:21:21.877Z,14.10
2019-05-20T20:23:52.022Z,14.00
2019-05-20T20:26:21.816Z,13.90
2019-05-20T20:28:51.605Z,13.90
2019-05-20T20:31:21.538Z,13.80
2019-05-20T20:33:51.744Z,13.80
2019-05-20T20:36:21.701Z,13.80
2019-05-20T20:38:51.525Z,13.70
2019-05-20T20:41:21.854Z,13.60
2019-05-20T20:43:51.765Z,13.60
2019-05-20T20:46:22.010Z,13.50
2019-05-20T20:48:51.808Z,13.50
2019-05-20T20:51:21.593Z,13.40
2019-05-20T20:53:51.442Z,13.40
2019-05-20T20:56:25.141Z,13.40
2019-05-20T20:58:53.010Z,13.40
2019-05-20T21:01:23.429Z,13.30
2019-05-20T21:03:54.222Z,13.30
2019-05-20T21:06:24.025Z,13.20
2019-05-20T21:08:53.858Z,13.10
2019-05-20T21:11:24.287Z,13.00
2019-05-20T21:13:54.236Z,12.90
2019-05-20T21:16:24.058Z,12.80
2019-05-20T21:18:53.920Z,12.70
2019-05-20T21:21:23.704Z,12.70
2019-05-20T21:23:53.902Z,12.50
2019-05-20T21:26:24.066Z,12.50
2019-05-20T21:28:53.863Z,12.40
2019-05-20T21:31:23.707Z,12.30
2019-05-20T21:33:54.211Z,12.30
2019-05-20T21:36:24.008Z,12.20
2019-05-20T21:38:53.874Z,12.10
2019-05-20T21:41:23.964Z,12.00
2019-05-20T21:43:54.849Z,12.00
2019-05-20T21:46:24.749Z,11.90
2019-05-20T21:48:54.516Z,11.80
2019-05-20T21:51:25.068Z,11.70
2019-05-20T21:53:54.925Z,11.60
2019-05-20T21:56:24.712Z,11.60
2019-05-20T21:58:55.041Z,11.60
2019-05-20T22:01:24.880Z,11.50
2019-05-20T22:03:54.853Z,11.50
2019-05-20T22:06:25.527Z,11.60
2019-05-20T22:08:56.320Z,11.50
2019-05-20T22:11:26.107Z,11.60
2019-05-20T22:13:58.421Z,11.50
2019-05-20T22:16:29.804Z,11.50
2019-05-20T22:18:59.827Z,11.50
2019-05-20T22:21:38.100Z,11.60
2019-05-20T22:24:09.276Z,11.60
2019-05-20T22:26:39.073Z,11.60
2019-05-20T22:29:08.898Z,11.60
2019-05-20T22:31:38.680Z,11.60
2019-05-20T22:34:08.630Z,11.50
2019-05-20T22:36:38.463Z,11.60
2019-05-20T22:39:09.663Z,11.50
2019-05-20T22:41:40.121Z,11.40
2019-05-20T22:44:10.976Z,11.40
2019-05-20T22:46:40.744Z,11.40
2019-05-20T22:49:10.638Z,11.30
2019-05-20T22:51:40.949Z,11.20
2019-05-20T22:54:11.250Z,11.20
2019-05-20T22:56:41.402Z,11.20
2019-05-20T22:59:11.218Z,11.20
2019-05-20T23:01:41.019Z,11.10
2019-05-20T23:04:10.989Z,11.00
2019-05-20T23:06:40.829Z,11.10
2019-05-20T23:09:11.001Z,11.10
2019-05-20T23:11:41.192Z,11.10
2019-05-20T23:14:12.576Z,11.00
2019-05-20T23:16:43.292Z,11.00
2019-05-20T23:19:13.075Z,10.90
2019-05-20T23:21:42.914Z,10.90
2019-05-20T23:24:13.081Z,10.90
2019-05-20T23:26:42.896Z,10.90
2019-05-20T23:29:12.720Z,10.90
2019-05-20T23:31:42.975Z,10.90
2019-05-20T23:34:13.447Z,10.90
2019-05-20T23:36:43.491Z,10.90
2019-05-20T23:39:13.296Z,11.00
2019-05-20T23:41:43.485Z,11.00
2019-05-20T23:44:13.425Z,10.90
2019-05-20T23:46:43.222Z,10.90
2019-05-20T23:49:13.010Z,10.90
2019-05-20T23:51:42.839Z,10.90
2019-05-20T23:54:12.740Z,10.90
2019-05-20T23:56:42.520Z,10.90
2019-05-20T23:59:12.357Z,10.90
